METAR Data
IDs: Format: Raw Decoded Include TAF

Data at: 0939 UTC 18 Jan 2022

KSBN 180935Z AUTO 24008KT 9SM SCT018 OVC100 M04/M08 A2998 RMK AO2 T10441078